createdAt,value
2017-08-18T00:02:17.646Z,28.27
2017-08-18T00:04:43.915Z,31.67
2017-08-18T00:07:10.975Z,31.77
2017-08-18T00:09:37.234Z,29.50
2017-08-18T00:12:04.803Z,30.27
2017-08-18T00:14:31.187Z,29.40
2017-08-18T00:16:57.466Z,32.30
2017-08-18T00:19:23.735Z,30.20
2017-08-18T00:21:50.177Z,30.37
2017-08-18T00:24:16.451Z,30.53
2017-08-18T00:26:42.694Z,33.23
2017-08-18T00:29:09.598Z,30.70
2017-08-18T00:31:35.874Z,30.93
2017-08-18T00:34:02.134Z,32.57
2017-08-18T00:36:29.163Z,35.10
2017-08-18T00:38:55.418Z,30.57
2017-08-18T00:41:21.670Z,31.47
2017-08-18T00:43:48.123Z,30.30
2017-08-18T00:46:14.378Z,31.50
2017-08-18T00:48:40.630Z,30.60
2017-08-18T00:51:07.290Z,33.40
2017-08-18T00:53:33.571Z,31.60
2017-08-18T00:55:59.835Z,34.70
2017-08-18T00:58:26.234Z,35.37
2017-08-18T01:00:52.496Z,35.33
2017-08-18T01:03:18.765Z,33.67
2017-08-18T01:05:45.210Z,35.60
2017-08-18T01:08:11.462Z,34.87
2017-08-18T01:10:38.442Z,33.83
2017-08-18T01:13:06.131Z,35.23
2017-08-18T01:15:32.394Z,34.20
2017-08-18T01:17:58.650Z,33.07
2017-08-18T01:20:25.030Z,33.53
2017-08-18T01:22:51.291Z,34.77
2017-08-18T01:25:17.543Z,33.63
2017-08-18T01:27:44.564Z,34.00
2017-08-18T01:30:10.806Z,34.10
2017-08-18T01:32:37.051Z,34.57
2017-08-18T01:35:04.150Z,31.70
2017-08-18T01:37:30.402Z,35.33
2017-08-18T01:39:56.638Z,33.07
2017-08-18T01:42:22.922Z,35.10
2017-08-18T01:44:49.178Z,34.00
2017-08-18T01:47:16.158Z,34.57
2017-08-18T01:49:42.442Z,33.67
2017-08-18T01:52:09.444Z,34.40
2017-08-18T01:54:35.742Z,33.87
2017-08-18T01:57:03.127Z,32.37
2017-08-18T01:59:29.363Z,31.73
2017-08-18T02:01:55.635Z,34.17
2017-08-18T02:04:22.050Z,33.57
2017-08-18T02:06:48.314Z,32.00
2017-08-18T02:09:14.579Z,32.90
2017-08-18T02:11:41.598Z,30.83
2017-08-18T02:14:09.133Z,32.00
2017-08-18T02:16:35.390Z,33.57
2017-08-18T02:19:02.524Z,31.87
2017-08-18T02:21:28.778Z,32.00
2017-08-18T02:23:55.031Z,31.50
2017-08-18T02:26:21.321Z,32.70
2017-08-18T02:28:47.570Z,30.53
2017-08-18T02:31:13.815Z,32.67
2017-08-18T02:33:40.943Z,31.40
2017-08-18T02:36:07.928Z,31.63
2017-08-18T02:38:34.181Z,31.13
2017-08-18T02:41:02.107Z,32.53
2017-08-18T02:43:28.358Z,30.73
2017-08-18T02:45:54.642Z,29.77
2017-08-18T02:48:21.658Z,31.10
2017-08-18T02:50:47.945Z,30.37
2017-08-18T02:53:14.946Z,28.63
2017-08-18T02:55:41.223Z,31.10
2017-08-18T02:58:07.555Z,30.00
2017-08-18T03:00:34.554Z,30.50
2017-08-18T03:03:02.166Z,30.07
2017-08-18T03:05:29.178Z,29.83
2017-08-18T03:07:55.436Z,28.53
2017-08-18T03:10:22.538Z,30.20
2017-08-18T03:12:49.523Z,29.43
2017-08-18T03:15:16.950Z,29.83
2017-08-18T03:17:44.838Z,28.03
2017-08-18T03:20:11.885Z,28.17
2017-08-18T03:22:38.138Z,27.70
2017-08-18T03:25:06.098Z,28.83
2017-08-18T03:27:32.407Z,29.10
2017-08-18T03:29:58.646Z,27.17
2017-08-18T03:32:25.655Z,29.30
2017-08-18T03:34:51.903Z,30.50
2017-08-18T03:37:18.170Z,28.47
2017-08-18T03:39:44.498Z,27.60
2017-08-18T03:42:11.519Z,28.53
2017-08-18T03:44:37.751Z,28.13
2017-08-18T03:47:06.178Z,29.60
2017-08-18T03:49:32.463Z,27.00
2017-08-18T03:51:58.709Z,30.00
2017-08-18T03:54:28.239Z,27.77
2017-08-18T03:56:54.479Z,28.87
2017-08-18T03:59:21.486Z,32.00
2017-08-18T04:01:47.776Z,28.30
2017-08-18T04:04:14.763Z,29.40
2017-08-18T04:06:40.995Z,27.40
2017-08-18T04:09:07.568Z,29.60
2017-08-18T04:11:33.818Z,28.10
2017-08-18T04:14:00.098Z,29.97
2017-08-18T04:16:26.747Z,31.23
2017-08-18T04:18:52.982Z,29.27
2017-08-18T04:21:19.230Z,28.80
2017-08-18T04:23:45.622Z,30.50
2017-08-18T04:26:11.894Z,29.10
2017-08-18T04:28:38.161Z,30.10
2017-08-18T04:31:05.274Z,29.10
2017-08-18T04:33:31.523Z,29.77
2017-08-18T04:35:57.806Z,28.73
2017-08-18T04:38:24.979Z,29.80
2017-08-18T04:40:51.235Z,28.90
2017-08-18T04:43:17.498Z,30.07
2017-08-18T04:45:43.785Z,28.30
2017-08-18T04:48:10.059Z,28.53
2017-08-18T04:50:36.325Z,28.33
2017-08-18T04:53:02.667Z,28.83
2017-08-18T04:55:28.926Z,30.17
2017-08-18T04:57:55.206Z,29.20
2017-08-18T05:00:21.586Z,30.17
2017-08-18T05:02:47.834Z,29.53
2017-08-18T05:05:14.818Z,30.47
2017-08-18T05:07:41.082Z,29.70
2017-08-18T05:10:07.341Z,28.67
2017-08-18T05:12:34.347Z,28.00
2017-08-18T05:15:01.175Z,29.97
2017-08-18T05:17:28.730Z,29.90
2017-08-18T05:19:54.995Z,29.30
2017-08-18T05:22:21.414Z,28.43
2017-08-18T05:24:47.702Z,29.47
2017-08-18T05:27:13.990Z,31.13
2017-08-18T05:29:40.319Z,28.77
2017-08-18T05:32:06.590Z,29.67
2017-08-18T05:34:32.844Z,29.70
2017-08-18T05:37:00.069Z,29.50
2017-08-18T05:39:26.386Z,29.03
2017-08-18T05:41:53.374Z,31.00
2017-08-18T05:44:19.660Z,29.67
2017-08-18T05:46:46.651Z,33.27
2017-08-18T05:49:12.915Z,32.00
2017-08-18T05:51:39.199Z,32.10
2017-08-18T05:54:05.463Z,28.60
2017-08-18T05:56:31.738Z,29.00
2017-08-18T05:58:58.067Z,28.47
2017-08-18T06:01:24.323Z,28.83
2017-08-18T06:03:50.595Z,28.03
2017-08-18T06:06:16.870Z,28.27
2017-08-18T06:08:43.111Z,25.63
2017-08-18T06:11:09.371Z,27.70
2017-08-18T06:13:35.771Z,27.97
2017-08-18T06:16:02.031Z,27.50
2017-08-18T06:18:40.866Z,26.03
2017-08-18T06:21:07.134Z,26.27
2017-08-18T06:23:33.411Z,28.43
2017-08-18T06:25:59.892Z,28.80
2017-08-18T06:28:26.176Z,27.10
2017-08-18T06:30:52.434Z,30.30
2017-08-18T06:33:18.707Z,29.77
2017-08-18T06:35:44.966Z,30.60
2017-08-18T06:38:11.266Z,31.60
2017-08-18T06:40:37.914Z,28.43
2017-08-18T06:43:04.171Z,27.10
2017-08-18T06:45:30.451Z,29.87
2017-08-18T06:47:56.865Z,28.10
2017-08-18T06:50:23.142Z,27.93
2017-08-18T06:52:49.439Z,27.90
2017-08-18T06:55:15.722Z,26.70
2017-08-18T06:57:42.015Z,28.10
2017-08-18T07:00:08.287Z,28.93
2017-08-18T07:02:34.761Z,27.20
2017-08-18T07:05:01.011Z,25.90
2017-08-18T07:07:27.328Z,25.40
2017-08-18T07:09:53.606Z,23.50
2017-08-18T07:12:19.868Z,26.00
2017-08-18T07:14:46.854Z,26.27
2017-08-18T07:17:13.157Z,24.33
2017-08-18T07:19:41.558Z,24.60
2017-08-18T07:22:07.875Z,23.10
2017-08-18T07:24:34.940Z,22.63
2017-08-18T07:27:01.243Z,24.60
2017-08-18T07:29:28.272Z,24.67
2017-08-18T07:31:54.688Z,22.37
2017-08-18T07:34:20.965Z,22.07
2017-08-18T07:36:47.210Z,20.37
2017-08-18T07:39:14.363Z,19.97
2017-08-18T07:41:40.647Z,18.90
2017-08-18T07:44:06.907Z,20.07
2017-08-18T07:46:33.618Z,18.83
2017-08-18T07:48:59.892Z,15.33
2017-08-18T07:51:26.203Z,16.83
2017-08-18T07:53:52.556Z,43.97
2017-08-18T07:56:18.862Z,18.37
2017-08-18T07:58:45.112Z,16.37
2017-08-18T08:01:11.547Z,16.57
2017-08-18T08:03:37.807Z,15.60
2017-08-18T08:06:04.074Z,15.93
2017-08-18T08:08:31.120Z,17.47
2017-08-18T08:10:58.122Z,15.40
2017-08-18T08:13:24.629Z,16.07
2017-08-18T08:15:52.122Z,15.37
2017-08-18T08:18:18.666Z,16.57
2017-08-18T08:20:46.971Z,16.00
2017-08-18T08:23:14.677Z,16.00
2017-08-18T08:25:41.915Z,16.33
2017-08-18T08:28:08.170Z,16.00
2017-08-18T08:30:35.755Z,14.37
2017-08-18T08:33:02.095Z,14.60
2017-08-18T08:35:28.358Z,14.10
2017-08-18T08:37:54.757Z,13.90
2017-08-18T08:40:21.049Z,13.73
2017-08-18T08:42:47.306Z,13.47
2017-08-18T08:45:14.419Z,12.50
2017-08-18T08:47:40.663Z,11.50
2017-08-18T08:50:06.914Z,12.20
2017-08-18T08:52:34.034Z,11.47
2017-08-18T08:55:00.304Z,13.70
2017-08-18T08:57:27.326Z,12.50
2017-08-18T08:59:53.583Z,12.90
2017-08-18T09:02:19.824Z,12.33
2017-08-18T09:04:46.074Z,13.40
2017-08-18T09:07:12.355Z,12.53
2017-08-18T09:09:38.642Z,12.07
2017-08-18T09:12:04.898Z,10.73
2017-08-18T09:14:32.278Z,11.97
2017-08-18T09:16:58.526Z,12.67
2017-08-18T09:19:24.774Z,11.70
2017-08-18T09:22:01.583Z,12.20
2017-08-18T09:24:27.834Z,11.53
2017-08-18T09:26:54.846Z,12.63
2017-08-18T09:29:21.154Z,13.50
2017-08-18T09:31:47.403Z,12.43
2017-08-18T09:34:13.654Z,12.90
2017-08-18T09:36:39.966Z,14.63
2017-08-18T09:39:06.218Z,13.90
2017-08-18T09:41:32.468Z,14.20
2017-08-18T09:43:58.767Z,15.60
2017-08-18T09:46:25.034Z,16.80
2017-08-18T09:49:03.802Z,16.00
2017-08-18T09:54:46.490Z,18.63
2017-08-18T09:57:25.682Z,18.13
2017-08-18T09:59:51.922Z,17.43
2017-08-18T10:02:18.149Z,17.37
2017-08-18T10:04:44.438Z,17.73
2017-08-18T10:07:10.682Z,17.90
2017-08-18T10:09:36.922Z,17.50
2017-08-18T10:12:03.141Z,19.07
2017-08-18T10:14:29.503Z,19.40
2017-08-18T10:16:55.754Z,18.27
2017-08-18T10:19:21.986Z,18.70
2017-08-18T10:21:48.365Z,19.73
2017-08-18T10:24:25.726Z,18.17
2017-08-18T10:26:52.106Z,17.10
2017-08-18T10:29:18.354Z,16.80
2017-08-18T10:31:44.610Z,16.67
2017-08-18T10:34:17.732Z,16.10
2017-08-18T10:36:43.959Z,15.70
2017-08-18T10:39:10.202Z,17.00
2017-08-18T10:41:36.506Z,18.43
2017-08-18T10:44:03.478Z,20.07
2017-08-18T10:46:29.749Z,22.93
2017-08-18T10:48:55.994Z,20.90
2017-08-18T10:51:22.221Z,23.23
2017-08-18T10:53:48.471Z,23.80
2017-08-18T10:56:14.857Z,22.30
2017-08-18T10:58:41.078Z,23.60
2017-08-18T11:01:07.310Z,23.60
2017-08-18T11:03:33.550Z,24.90
2017-08-18T11:05:59.776Z,26.87
2017-08-18T11:08:26.014Z,26.27
2017-08-18T11:10:52.245Z,28.37
2017-08-18T11:13:18.482Z,29.30
2017-08-18T11:15:44.707Z,28.50
2017-08-18T11:18:11.095Z,29.63
2017-08-18T11:20:37.359Z,29.87
2017-08-18T11:23:03.590Z,31.43
2017-08-18T11:25:30.985Z,31.60
2017-08-18T11:27:58.037Z,32.23
2017-08-18T11:30:24.351Z,29.23
2017-08-18T11:32:50.762Z,28.67
2017-08-18T11:35:16.984Z,28.50
2017-08-18T11:37:43.209Z,37.57
2017-08-18T11:40:09.983Z,54.27
2017-08-18T11:42:36.225Z,35.37
2017-08-18T11:45:02.454Z,33.03
2017-08-18T11:47:28.783Z,27.40
2017-08-18T11:49:55.062Z,28.53
2017-08-18T11:52:21.285Z,24.77
2017-08-18T11:54:47.554Z,24.60
2017-08-18T11:57:13.774Z,26.93
2017-08-18T11:59:40.015Z,28.60
2017-08-18T12:02:07.057Z,27.93
2017-08-18T12:04:33.285Z,26.23
2017-08-18T12:06:59.518Z,28.23
2017-08-18T12:09:26.655Z,27.40
2017-08-18T12:11:54.371Z,25.30
2017-08-18T12:14:21.387Z,26.17
2017-08-18T12:16:47.679Z,24.50
2017-08-18T12:19:13.925Z,25.30
2017-08-18T12:21:40.163Z,26.40
2017-08-18T12:24:07.478Z,23.90
2017-08-18T12:26:34.250Z,23.77
2017-08-18T12:29:00.514Z,22.80
2017-08-18T12:31:26.773Z,22.07
2017-08-18T12:33:53.014Z,22.90
2017-08-18T12:36:19.250Z,23.70
2017-08-18T12:38:45.518Z,23.50
2017-08-18T12:41:12.669Z,23.63
2017-08-18T12:43:38.901Z,24.60
2017-08-18T12:46:05.676Z,22.30
2017-08-18T12:48:31.978Z,22.70
2017-08-18T12:50:58.218Z,24.70
2017-08-18T12:53:25.147Z,24.33
2017-08-18T12:55:51.404Z,24.60
2017-08-18T12:58:17.660Z,25.37
2017-08-18T13:00:43.947Z,24.53
2017-08-18T13:03:10.231Z,25.40
2017-08-18T13:05:36.468Z,22.27
2017-08-18T13:08:03.267Z,27.17
2017-08-18T13:10:30.287Z,25.07
2017-08-18T13:12:56.587Z,27.70
2017-08-18T13:15:23.014Z,20.73
2017-08-18T13:17:49.238Z,17.57
2017-08-18T13:20:15.473Z,19.73
2017-08-18T13:22:42.630Z,20.53
2017-08-18T13:25:08.858Z,17.93
2017-08-18T13:27:47.619Z,17.80
2017-08-18T13:30:13.878Z,14.17
2017-08-18T13:32:40.177Z,13.30
2017-08-18T13:35:06.454Z,15.20
2017-08-18T13:37:32.696Z,13.90
2017-08-18T13:39:58.912Z,13.83
2017-08-18T13:42:25.178Z,13.60
2017-08-18T13:44:51.451Z,13.80
2017-08-18T13:47:18.462Z,15.83
2017-08-18T13:49:44.798Z,14.30
2017-08-18T13:52:11.049Z,14.47
2017-08-18T13:54:37.287Z,11.57
2017-08-18T13:57:03.630Z,10.83
2017-08-18T13:59:29.895Z,10.83
2017-08-18T14:01:57.078Z,10.63
2017-08-18T14:04:23.372Z,10.30
2017-08-18T14:06:49.610Z,11.53
2017-08-18T14:09:15.903Z,10.33
2017-08-18T14:11:42.196Z,11.87
2017-08-18T14:14:08.449Z,13.23
2017-08-18T14:16:34.712Z,10.83
2017-08-18T14:19:00.970Z,10.03
2017-08-18T14:21:27.201Z,9.20
2017-08-18T14:23:54.206Z,14.97
2017-08-18T14:26:26.546Z,51.57
2017-08-18T14:29:04.453Z,16.87
2017-08-18T14:31:31.368Z,18.30
2017-08-18T14:33:57.601Z,14.90
2017-08-18T14:36:23.851Z,9.93
2017-08-18T14:38:50.091Z,10.40
2017-08-18T14:41:16.334Z,8.77
2017-08-18T14:43:42.586Z,8.20
2017-08-18T14:46:08.971Z,8.40
2017-08-18T14:48:35.206Z,9.50
2017-08-18T14:51:01.428Z,10.37
2017-08-18T14:53:27.725Z,10.67
2017-08-18T14:55:53.973Z,9.40
2017-08-18T14:58:20.930Z,10.57
2017-08-18T15:00:47.206Z,9.50
2017-08-18T15:03:13.451Z,11.03
2017-08-18T15:05:39.682Z,10.40
2017-08-18T15:08:05.957Z,10.90
2017-08-18T15:10:32.198Z,11.17
2017-08-18T15:12:58.447Z,11.00
2017-08-18T15:15:25.675Z,10.67
2017-08-18T15:17:51.906Z,9.33
2017-08-18T15:20:18.158Z,10.53
2017-08-18T15:22:44.530Z,13.40
2017-08-18T15:25:10.793Z,14.40
2017-08-18T15:27:37.066Z,11.30
2017-08-18T15:30:05.031Z,20.20
2017-08-18T15:32:31.250Z,39.63
2017-08-18T15:34:57.478Z,17.20
2017-08-18T15:37:24.824Z,18.60
2017-08-18T15:39:51.062Z,17.07
2017-08-18T15:42:17.280Z,15.40
2017-08-18T15:44:43.698Z,13.20
2017-08-18T15:47:09.922Z,14.37
2017-08-18T15:49:36.154Z,12.87
2017-08-18T15:52:02.616Z,11.30
2017-08-18T15:54:28.865Z,10.90
2017-08-18T15:56:55.114Z,12.10
2017-08-18T15:59:22.126Z,12.27
2017-08-18T16:01:48.370Z,11.43
2017-08-18T16:04:14.594Z,12.40
2017-08-18T16:06:40.857Z,11.37
2017-08-18T16:09:07.097Z,10.10
2017-08-18T16:11:33.365Z,9.77
2017-08-18T16:13:59.646Z,9.73
2017-08-18T16:16:25.905Z,8.13
2017-08-18T16:18:52.446Z,9.43
2017-08-18T16:21:18.747Z,27.87
2017-08-18T16:23:44.982Z,14.33
2017-08-18T16:26:11.209Z,22.70
2017-08-18T16:28:37.509Z,18.77
2017-08-18T16:31:14.975Z,10.60
2017-08-18T16:33:41.238Z,9.20
2017-08-18T16:36:07.466Z,8.50
2017-08-18T16:38:33.699Z,9.00
2017-08-18T16:41:00.947Z,9.40
2017-08-18T16:43:27.932Z,8.23
2017-08-18T16:45:54.153Z,8.50
2017-08-18T16:48:20.474Z,9.17
2017-08-18T16:50:46.701Z,8.60
2017-08-18T16:53:12.938Z,7.97
2017-08-18T16:55:39.318Z,8.57
2017-08-18T16:58:05.554Z,7.80
2017-08-18T17:00:31.782Z,8.10
2017-08-18T17:02:58.566Z,8.30
2017-08-18T17:05:24.786Z,13.10
2017-08-18T17:07:51.860Z,10.80
2017-08-18T17:10:18.367Z,10.10
2017-08-18T17:12:44.666Z,11.70
2017-08-18T17:15:10.882Z,11.03
2017-08-18T17:17:37.238Z,10.90
2017-08-18T17:20:03.470Z,40.93
2017-08-18T17:22:29.701Z,22.50
2017-08-18T17:24:55.976Z,36.37
2017-08-18T17:27:22.205Z,29.00
2017-08-18T17:29:48.438Z,19.07
2017-08-18T17:32:15.623Z,15.13
2017-08-18T17:34:41.859Z,17.10
2017-08-18T17:37:08.122Z,20.40
2017-08-18T17:39:35.099Z,19.30
2017-08-18T17:42:01.325Z,19.83
2017-08-18T17:44:28.285Z,19.77
2017-08-18T17:46:54.533Z,20.07
2017-08-18T17:49:20.783Z,21.17
2017-08-18T17:51:47.034Z,19.97
2017-08-18T17:54:13.422Z,21.03
2017-08-18T17:56:39.659Z,20.27
2017-08-18T17:59:05.897Z,18.97
2017-08-18T18:01:33.050Z,18.80
2017-08-18T18:03:59.282Z,19.37
2017-08-18T18:06:25.509Z,19.13
2017-08-18T18:08:51.762Z,17.70
2017-08-18T18:11:18.105Z,17.20
2017-08-18T18:13:44.625Z,18.30
2017-08-18T18:16:11.939Z,18.10
2017-08-18T18:18:39.196Z,19.17
2017-08-18T18:21:05.557Z,18.80
2017-08-18T18:23:32.998Z,18.10
2017-08-18T18:25:59.309Z,19.73
2017-08-18T18:28:25.701Z,18.53
2017-08-18T18:30:51.991Z,29.17
2017-08-18T18:33:18.910Z,38.10
2017-08-18T18:35:45.894Z,38.17
2017-08-18T18:38:12.398Z,35.70
2017-08-18T18:40:38.646Z,21.50
2017-08-18T18:43:04.966Z,19.20
2017-08-18T18:45:32.276Z,19.10
2017-08-18T18:47:58.578Z,19.57
2017-08-18T18:50:24.825Z,19.33
2017-08-18T18:52:51.074Z,21.10
2017-08-18T18:55:17.529Z,18.73
2017-08-18T18:57:44.889Z,22.23
2017-08-18T19:00:11.207Z,18.27
2017-08-18T19:02:37.514Z,16.00
2017-08-18T19:05:03.758Z,12.27
2017-08-18T19:07:31.163Z,9.87
2017-08-18T19:09:57.449Z,13.87
2017-08-18T19:12:24.467Z,6.57
2017-08-18T19:14:50.697Z,8.27
2017-08-18T19:17:16.946Z,5.07
2017-08-18T19:19:43.194Z,4.00
2017-08-18T19:22:09.454Z,3.30
2017-08-18T19:24:35.686Z,3.50
2017-08-18T19:27:01.934Z,4.50
2017-08-18T19:29:28.294Z,3.47
2017-08-18T19:31:54.526Z,3.83
2017-08-18T19:34:21.470Z,4.50
2017-08-18T19:36:47.718Z,4.07
2017-08-18T19:39:13.947Z,4.07
2017-08-18T19:41:40.182Z,4.20
2017-08-18T19:44:06.436Z,3.80
2017-08-18T19:46:32.727Z,4.23
2017-08-18T19:48:58.958Z,3.47
2017-08-18T19:51:25.346Z,4.20
2017-08-18T19:53:51.639Z,5.10
2017-08-18T19:56:17.867Z,3.33
2017-08-18T19:58:44.129Z,3.70
2017-08-18T20:01:10.399Z,5.30
2017-08-18T20:03:36.626Z,7.17
2017-08-18T20:06:02.895Z,5.63
2017-08-18T20:08:29.134Z,5.30
2017-08-18T20:10:56.314Z,4.77
2017-08-18T20:13:22.578Z,4.17
2017-08-18T20:15:48.793Z,4.60
2017-08-18T20:18:15.027Z,3.77
2017-08-18T20:20:41.378Z,3.97
2017-08-18T20:23:07.614Z,3.90
2017-08-18T20:25:33.890Z,3.33
2017-08-18T20:28:00.185Z,4.20
2017-08-18T20:30:27.287Z,3.00
2017-08-18T20:32:53.542Z,3.90
2017-08-18T20:35:20.159Z,3.20
2017-08-18T20:37:46.390Z,3.57
2017-08-18T20:40:19.610Z,3.50
2017-08-18T20:42:45.847Z,4.20
2017-08-18T20:45:12.098Z,4.37
2017-08-18T20:47:39.441Z,3.80
2017-08-18T20:50:05.675Z,3.67
2017-08-18T20:52:31.902Z,4.40
2017-08-18T20:54:58.969Z,4.20
2017-08-18T20:59:58.090Z,3.90
2017-08-18T21:02:24.321Z,5.70
2017-08-18T21:04:50.549Z,6.27
2017-08-18T21:07:17.395Z,6.77
2017-08-18T21:09:43.618Z,6.70
2017-08-18T21:12:09.833Z,6.20
2017-08-18T21:14:36.107Z,6.00
2017-08-18T21:17:02.346Z,7.20
2017-08-18T21:19:28.565Z,7.70
2017-08-18T21:21:54.810Z,7.33
2017-08-18T21:24:21.037Z,9.27
2017-08-18T21:26:47.259Z,7.70
2017-08-18T21:29:13.589Z,9.27
2017-08-18T21:31:39.874Z,10.60
2017-08-18T21:34:06.870Z,11.00
2017-08-18T21:36:44.238Z,11.40
2017-08-18T21:39:10.467Z,11.20
2017-08-18T21:41:36.690Z,12.53
2017-08-18T21:44:03.036Z,11.30
2017-08-18T21:46:29.268Z,12.57
2017-08-18T21:48:55.489Z,13.00
2017-08-18T21:51:22.630Z,13.07
2017-08-18T21:53:50.470Z,12.73
2017-08-18T21:56:16.698Z,12.93
2017-08-18T21:58:42.947Z,12.67
2017-08-18T22:01:09.170Z,14.20
2017-08-18T22:03:35.462Z,14.20
2017-08-18T22:06:01.884Z,12.70
2017-08-18T22:08:28.216Z,14.80
2017-08-18T22:10:54.450Z,14.40
2017-08-18T22:13:21.793Z,14.67
2017-08-18T22:15:48.042Z,14.30
2017-08-18T22:18:14.267Z,15.20
2017-08-18T22:20:40.506Z,20.10
2017-08-18T22:23:06.726Z,15.70
2017-08-18T22:25:32.988Z,14.63
2017-08-18T22:27:59.354Z,14.53
2017-08-18T22:30:25.607Z,14.47
2017-08-18T22:32:51.842Z,15.60
2017-08-18T22:35:18.482Z,15.37
2017-08-18T22:37:46.249Z,14.80
2017-08-18T22:40:12.476Z,16.20
2017-08-18T22:42:38.726Z,15.13
2017-08-18T22:45:04.946Z,17.80
2017-08-18T22:47:31.189Z,17.17
2017-08-18T22:49:57.430Z,16.20
2017-08-18T22:52:23.657Z,18.10
2017-08-18T22:54:49.931Z,16.60
2017-08-18T22:57:16.730Z,16.80
2017-08-18T22:59:43.783Z,17.77
2017-08-18T23:02:10.001Z,21.07
2017-08-18T23:04:36.250Z,18.47
2017-08-18T23:07:02.493Z,18.90
2017-08-18T23:09:28.722Z,21.57
2017-08-18T23:11:55.120Z,22.10
2017-08-18T23:14:21.348Z,21.43
2017-08-18T23:16:47.582Z,21.60
2017-08-18T23:19:14.631Z,23.40
2017-08-18T23:21:40.863Z,22.87
2017-08-18T23:24:07.088Z,21.77
2017-08-18T23:26:33.430Z,22.20
2017-08-18T23:28:59.673Z,28.77
2017-08-18T23:31:25.885Z,28.17
2017-08-18T23:33:52.279Z,22.10
2017-08-18T23:36:18.510Z,23.73
2017-08-18T23:38:44.845Z,22.30
2017-08-18T23:41:11.149Z,23.10
2017-08-18T23:43:37.380Z,21.90
2017-08-18T23:46:03.606Z,22.90
2017-08-18T23:48:29.837Z,22.40
2017-08-18T23:50:56.080Z,24.30
2017-08-18T23:53:22.302Z,23.53
2017-08-18T23:55:48.718Z,23.93
2017-08-18T23:58:14.953Z,20.93
